Terminal Aerodrome Forecast
Issued by NWS

Current Version | Previous Version | Text Only | Print | Product List | Glossary Off
Versions: 1 2 3 4 5 6 7 8 9 10 11 12 13 14 15 16 17 18 19 20 21

000
FTUS41 KILN 261700
TAFLCK
TAF
KLCK 261739Z 2618/2718 33013KT P6SM SCT015 OVC060
      TEMPO 2618/2621 BKN015 OVC040
     FM270200 33005KT P6SM BKN020 OVC200
     FM271400 34009KT P6SM OVC025=

USA.gov is the U.S. government's official web portal to all federal, state and local government web resources and services.